Time;durP1;ratioP1;P1;durP2;ratioP2;P2;SDS_P1;SDS_P2;PMS_P1;PMS_P2;Temp;Humidity;BMP_temperature;BMP_pressure;BME280_temperature;BME280_humidity;BME280_pressure;Samples;Min_cycle;Max_cycle;Signal;HPM_P1;HPM_P2
2022/09/13 00:00:42;;;;;;;10.60;7.10;;;;;;;;;;5071887;28;20094;-74
2022/09/13 00:03:09;;;;;;;11.00;7.85;;;;;;;;;;5071335;28;20031;-74
2022/09/13 00:05:36;;;;;;;11.82;8.55;;;;;;;;;;5071496;28;20079;-73
2022/09/13 00:08:02;;;;;;;13.23;8.18;;;;;;;;;;5071308;28;20032;-74
2022/09/13 00:10:30;;;;;;;11.60;9.50;;;;;;;;;;5071546;28;20781;-73
2022/09/13 00:12:56;;;;;;;15.30;9.23;;;;;;;;;;5069846;28;20032;-73
2022/09/13 00:15:22;;;;;;;12.45;9.15;;;;;;;;;;5071111;28;20031;-74
2022/09/13 00:17:50;;;;;;;17.55;10.00;;;;;;;;;;5071540;28;20825;-74
2022/09/13 00:20:16;;;;;;;13.32;9.63;;;;;;;;;;5070924;28;20075;-74
2022/09/13 00:22:42;;;;;;;11.40;8.85;;;;;;;;;;5071898;28;20078;-73
2022/09/13 00:25:09;;;;;;;12.65;9.45;;;;;;;;;;5071041;28;20020;-73
2022/09/13 00:27:35;;;;;;;11.75;8.75;;;;;;;;;;5071492;28;20437;-73
2022/09/13 00:30:04;;;;;;;12.10;9.02;;;;;;;;;;5070888;28;20049;-74
2022/09/13 00:32:30;;;;;;;13.73;9.40;;;;;;;;;;5072555;28;20020;-74
2022/09/13 00:34:56;;;;;;;11.45;9.07;;;;;;;;;;5071985;28;20028;-74
2022/09/13 00:37:22;;;;;;;13.98;10.10;;;;;;;;;;5073034;28;20047;-74
2022/09/13 00:39:50;;;;;;;11.35;8.70;;;;;;;;;;5073863;28;20074;-74
2022/09/13 00:42:16;;;;;;;12.85;9.80;;;;;;;;;;5071246;28;20107;-74
2022/09/13 00:44:45;;;;;;;11.57;9.50;;;;;;;;;;5069714;28;20142;-74
2022/09/13 00:47:13;;;;;;;12.57;8.88;;;;;;;;;;5071526;28;20032;-74
2022/09/13 00:49:40;;;;;;;14.23;10.52;;;;;;;;;;5070788;28;20031;-74
2022/09/13 00:52:09;;;;;;;18.60;10.23;;;;;;;;;;5070792;28;20028;-74
2022/09/13 00:54:44;;;;;;;13.32;9.70;;;;;;;;;;5070161;28;20463;-74
2022/09/13 00:57:11;;;;;;;14.52;9.85;;;;;;;;;;5070651;28;20021;-73
2022/09/13 00:59:39;;;;;;;13.05;9.75;;;;;;;;;;5070578;28;20021;-74
2022/09/13 01:02:05;;;;;;;15.05;10.98;;;;;;;;;;5060052;28;20031;-74
2022/09/13 01:04:32;;;;;;;12.82;10.43;;;;;;;;;;5069184;28;20021;-74
2022/09/13 01:07:00;;;;;;;14.05;10.23;;;;;;;;;;5070424;28;20028;-74
2022/09/13 01:09:27;;;;;;;17.70;10.82;;;;;;;;;;5070399;28;20089;-74
2022/09/13 01:11:59;;;;;;;15.50;11.25;;;;;;;;;;5070650;28;20024;-73
2022/09/13 01:14:26;;;;;;;13.30;9.00;;;;;;;;;;5071439;28;20089;-73
2022/09/13 01:16:53;;;;;;;16.05;12.18;;;;;;;;;;5070425;28;20119;-74
2022/09/13 01:19:19;;;;;;;13.80;11.45;;;;;;;;;;5070910;28;20489;-74
2022/09/13 01:21:54;;;;;;;15.68;11.95;;;;;;;;;;5070140;28;20101;-74
2022/09/13 01:24:33;;;;;;;13.73;11.13;;;;;;;;;;5069981;28;20017;-74
2022/09/13 01:27:06;;;;;;;15.90;11.18;;;;;;;;;;5068696;28;20113;-74
2022/09/13 01:29:51;;;;;;;16.17;12.80;;;;;;;;;;5070698;28;20025;-74
2022/09/13 01:32:19;;;;;;;14.70;11.25;;;;;;;;;;5069815;28;20063;-74
2022/09/13 01:35:04;;;;;;;16.48;12.15;;;;;;;;;;5069839;28;20517;-74
2022/09/13 01:37:46;;;;;;;16.92;12.65;;;;;;;;;;5069699;28;20103;-74
2022/09/13 01:40:31;;;;;;;13.10;11.02;;;;;;;;;;5069606;28;20021;-73
2022/09/13 01:43:15;;;;;;;16.55;12.15;;;;;;;;;;5069424;28;20021;-74
2022/09/13 01:45:55;;;;;;;13.07;10.57;;;;;;;;;;5069539;28;20065;-73
2022/09/13 01:48:24;;;;;;;15.95;12.70;;;;;;;;;;5069629;28;20483;-74
2022/09/13 01:51:00;;;;;;;14.85;11.23;;;;;;;;;;5069538;28;20483;-74
2022/09/13 01:53:44;;;;;;;15.45;11.10;;;;;;;;;;5066942;28;20043;-74
2022/09/13 01:56:20;;;;;;;15.23;12.32;;;;;;;;;;5069396;28;20020;-74
2022/09/13 01:58:52;;;;;;;16.10;11.70;;;;;;;;;;5069331;28;20024;-74
2022/09/13 02:01:23;;;;;;;15.60;11.75;;;;;;;;;;5067822;28;20023;-74
2022/09/13 02:04:04;;;;;;;15.70;13.02;;;;;;;;;;5069086;28;20082;-74
2022/09/13 02:06:33;;;;;;;13.48;11.40;;;;;;;;;;5068914;28;20028;-74
2022/09/13 02:09:01;;;;;;;17.60;12.18;;;;;;;;;;5069535;28;20404;-74
2022/09/13 02:11:27;;;;;;;16.30;12.25;;;;;;;;;;5065084;28;20025;-74
2022/09/13 02:13:59;;;;;;;14.68;11.05;;;;;;;;;;5069063;28;20026;-74
2022/09/13 02:16:37;;;;;;;6.35;4.30;;;;;;;;;;5062038;28;20052;-75
2022/09/13 02:19:08;;;;;;;5.15;2.97;;;;;;;;;;5062247;28;20041;-76
2022/09/13 02:21:38;;;;;;;3.67;2.33;;;;;;;;;;5060454;28;20052;-75
2022/09/13 02:24:08;;;;;;;3.28;2.28;;;;;;;;;;5068955;28;20032;-75
2022/09/13 02:26:35;;;;;;;3.38;2.17;;;;;;;;;;5068925;28;20021;-75
2022/09/13 02:29:06;;;;;;;3.50;2.10;;;;;;;;;;5069135;28;20075;-75
2022/09/13 02:31:38;;;;;;;4.97;3.13;;;;;;;;;;5069279;28;20413;-74
2022/09/13 02:34:07;;;;;;;8.70;6.13;;;;;;;;;;5069172;28;20375;-74
2022/09/13 02:36:39;;;;;;;13.07;10.23;;;;;;;;;;5047489;28;20147;-75
2022/09/13 02:39:31;;;;;;;13.68;11.57;;;;;;;;;;5063146;28;20060;-74
2022/09/13 02:42:21;;;;;;;11.93;10.02;;;;;;;;;;5049832;28;20048;-74
2022/09/13 02:44:52;;;;;;;13.55;9.70;;;;;;;;;;5070195;28;20036;-74
2022/09/13 02:47:27;;;;;;;15.82;11.43;;;;;;;;;;5068679;28;20017;-75
2022/09/13 02:50:11;;;;;;;11.40;9.00;;;;;;;;;;5066992;28;20072;-75
2022/09/13 02:52:45;;;;;;;12.00;9.15;;;;;;;;;;5067329;28;20078;-75
2022/09/13 02:55:17;;;;;;;13.63;10.48;;;;;;;;;;5066741;28;20439;-74
2022/09/13 02:58:05;;;;;;;14.48;11.10;;;;;;;;;;5066023;28;20131;-74
2022/09/13 03:00:31;;;;;;;12.15;9.70;;;;;;;;;;5065020;28;20016;-73
2022/09/13 03:02:59;;;;;;;13.60;10.60;;;;;;;;;;5067911;28;20020;-74
2022/09/13 03:05:25;;;;;;;11.95;9.38;;;;;;;;;;5068434;28;20073;-74
2022/09/13 03:07:51;;;;;;;12.82;10.43;;;;;;;;;;5068810;28;20482;-74
2022/09/13 03:10:18;;;;;;;14.07;11.15;;;;;;;;;;5066837;28;20040;-73
2022/09/13 03:13:03;;;;;;;10.48;8.45;;;;;;;;;;5069147;28;20021;-73
2022/09/13 03:15:52;;;;;;;16.73;12.48;;;;;;;;;;5067038;28;20120;-74
2022/09/13 03:18:19;;;;;;;14.90;11.48;;;;;;;;;;5070840;28;20491;-73
2022/09/13 03:21:07;;;;;;;13.73;12.07;;;;;;;;;;5073032;28;20044;-74
2022/09/13 03:23:41;;;;;;;14.85;11.15;;;;;;;;;;5073582;28;20021;-74
2022/09/13 03:26:16;;;;;;;15.27;11.45;;;;;;;;;;5072644;28;20035;-74
2022/09/13 03:29:03;;;;;;;15.63;11.77;;;;;;;;;;5072398;28;20066;-74
2022/09/13 03:31:35;;;;;;;15.02;11.30;;;;;;;;;;5071725;28;20037;-75
2022/09/13 03:34:04;;;;;;;13.57;9.32;;;;;;;;;;5072906;28;20399;-75
2022/09/13 03:36:41;;;;;;;12.90;10.80;;;;;;;;;;5071498;28;20029;-75
2022/09/13 03:39:14;;;;;;;14.65;11.30;;;;;;;;;;5071952;28;20033;-75
2022/09/13 03:41:42;;;;;;;13.32;9.27;;;;;;;;;;5072159;28;20379;-75
2022/09/13 03:44:11;;;;;;;13.68;10.85;;;;;;;;;;5072138;28;20603;-74
2022/09/13 03:46:41;;;;;;;14.90;11.00;;;;;;;;;;5071746;28;20027;-74
2022/09/13 03:49:12;;;;;;;15.00;10.43;;;;;;;;;;5071641;28;20124;-73
2022/09/13 03:51:38;;;;;;;13.63;9.82;;;;;;;;;;5071917;28;20024;-73
2022/09/13 03:54:07;;;;;;;12.98;10.55;;;;;;;;;;5070660;28;20483;-74
2022/09/13 03:56:33;;;;;;;14.32;9.43;;;;;;;;;;5072166;28;20029;-75
2022/09/13 03:58:59;;;;;;;14.82;10.27;;;;;;;;;;5071204;28;20032;-75
2022/09/13 04:01:26;;;;;;;12.52;10.50;;;;;;;;;;5071589;28;20028;-74
2022/09/13 04:03:52;;;;;;;12.60;10.80;;;;;;;;;;5071849;28;20028;-73
2022/09/13 04:06:18;;;;;;;13.90;10.15;;;;;;;;;;5070392;28;20025;-74
2022/09/13 04:08:44;;;;;;;13.73;10.40;;;;;;;;;;5072141;28;20148;-74
2022/09/13 04:11:10;;;;;;;12.65;9.30;;;;;;;;;;5071694;28;20099;-74
2022/09/13 04:13:37;;;;;;;14.45;10.95;;;;;;;;;;5071349;28;20044;-74
2022/09/13 04:16:03;;;;;;;13.05;10.07;;;;;;;;;;5071852;28;20035;-74
2022/09/13 04:18:30;;;;;;;17.80;11.77;;;;;;;;;;5069768;28;20153;-74
2022/09/13 04:20:57;;;;;;;12.45;9.52;;;;;;;;;;5069834;28;20063;-74
2022/09/13 04:23:23;;;;;;;14.30;9.63;;;;;;;;;;5071389;28;20437;-74
2022/09/13 04:25:50;;;;;;;14.02;11.00;;;;;;;;;;5071554;28;20032;-74
2022/09/13 04:28:17;;;;;;;14.75;10.88;;;;;;;;;;5071141;28;20037;-74
2022/09/13 04:30:45;;;;;;;15.73;10.85;;;;;;;;;;5070747;28;20024;-74
2022/09/13 04:33:11;;;;;;;18.52;13.10;;;;;;;;;;5070862;28;20024;-74
2022/09/13 04:35:38;;;;;;;16.23;11.75;;;;;;;;;;5071199;28;20032;-74
2022/09/13 04:38:04;;;;;;;15.32;12.27;;;;;;;;;;5070994;28;20040;-74
2022/09/13 04:40:30;;;;;;;15.50;11.77;;;;;;;;;;5071107;28;20024;-74
2022/09/13 04:42:56;;;;;;;16.92;11.90;;;;;;;;;;5070667;28;20802;-74
2022/09/13 04:45:23;;;;;;;14.48;11.23;;;;;;;;;;5071057;28;20020;-75
2022/09/13 04:47:53;;;;;;;17.60;11.13;;;;;;;;;;5070994;28;20129;-74
2022/09/13 04:50:19;;;;;;;17.17;11.95;;;;;;;;;;5070164;28;20056;-75
2022/09/13 04:52:46;;;;;;;15.68;12.00;;;;;;;;;;5070812;28;20016;-75
2022/09/13 04:55:12;;;;;;;14.55;11.95;;;;;;;;;;5070964;28;20020;-76
2022/09/13 04:57:39;;;;;;;16.42;12.48;;;;;;;;;;5070514;28;20463;-75
2022/09/13 05:00:05;;;;;;;16.10;13.32;;;;;;;;;;5070901;28;20078;-75
2022/09/13 05:02:31;;;;;;;13.40;11.50;;;;;;;;;;5069738;28;20471;-74
2022/09/13 05:04:57;;;;;;;17.77;13.45;;;;;;;;;;5070396;28;20104;-75
2022/09/13 05:07:23;;;;;;;17.48;12.80;;;;;;;;;;5070484;28;20025;-75
2022/09/13 05:09:49;;;;;;;15.07;12.32;;;;;;;;;;5070710;28;20037;-75
2022/09/13 05:12:15;;;;;;;16.92;13.25;;;;;;;;;;5070696;28;20052;-75
2022/09/13 05:14:41;;;;;;;17.50;14.02;;;;;;;;;;5070785;28;20915;-75
2022/09/13 05:17:07;;;;;;;16.60;13.02;;;;;;;;;;5070176;28;20025;-74
2022/09/13 05:19:33;;;;;;;17.95;13.10;;;;;;;;;;5070102;28;20031;-74
2022/09/13 05:22:00;;;;;;;18.13;13.70;;;;;;;;;;5069462;28;20060;-75
2022/09/13 05:24:26;;;;;;;15.77;13.60;;;;;;;;;;5070405;28;20020;-75
2022/09/13 05:26:52;;;;;;;19.48;14.60;;;;;;;;;;5070803;28;20052;-75
2022/09/13 05:29:18;;;;;;;17.63;14.32;;;;;;;;;;5070895;28;20119;-75
2022/09/13 05:31:44;;;;;;;17.38;12.73;;;;;;;;;;5072494;28;20128;-74
2022/09/13 05:34:15;;;;;;;17.40;13.70;;;;;;;;;;5074722;28;20081;-75
2022/09/13 05:36:41;;;;;;;15.45;12.55;;;;;;;;;;5071577;28;20035;-75
2022/09/13 05:39:11;;;;;;;15.15;12.65;;;;;;;;;;5070641;28;20039;-74
2022/09/13 05:41:37;;;;;;;19.55;14.73;;;;;;;;;;5070061;28;20028;-75
2022/09/13 05:44:03;;;;;;;20.05;15.63;;;;;;;;;;5069583;28;20380;-75
2022/09/13 05:46:29;;;;;;;19.83;14.80;;;;;;;;;;5070072;28;20028;-75
2022/09/13 05:49:00;;;;;;;16.90;13.85;;;;;;;;;;5062169;28;20041;-74
2022/09/13 05:51:27;;;;;;;17.17;14.30;;;;;;;;;;5069946;28;20506;-74
2022/09/13 05:53:53;;;;;;;17.13;14.20;;;;;;;;;;5069676;28;20533;-74
2022/09/13 05:56:21;;;;;;;15.77;13.70;;;;;;;;;;5069798;28;20033;-74
2022/09/13 05:58:47;;;;;;;19.50;15.55;;;;;;;;;;5070003;28;20371;-73
2022/09/13 06:01:14;;;;;;;16.60;14.68;;;;;;;;;;5068956;28;20032;-75
2022/09/13 06:03:40;;;;;;;16.45;12.38;;;;;;;;;;5068049;28;20399;-74
2022/09/13 06:06:07;;;;;;;16.10;13.77;;;;;;;;;;5069268;28;20367;-74
2022/09/13 06:08:33;;;;;;;17.67;14.48;;;;;;;;;;5069020;28;20051;-75
2022/09/13 06:11:01;;;;;;;24.05;15.95;;;;;;;;;;5068932;28;20020;-73
2022/09/13 06:13:28;;;;;;;17.98;14.10;;;;;;;;;;5069409;28;20024;-73
2022/09/13 06:15:55;;;;;;;14.23;11.95;;;;;;;;;;5068916;28;20024;-73
2022/09/13 06:18:23;;;;;;;7.93;5.88;;;;;;;;;;5069300;28;20451;-73
2022/09/13 06:20:49;;;;;;;9.55;3.92;;;;;;;;;;5064776;28;20045;-73
2022/09/13 06:23:15;;;;;;;10.15;4.03;;;;;;;;;;5068039;28;20426;-73
2022/09/13 06:25:41;;;;;;;8.93;4.20;;;;;;;;;;5069184;28;20028;-73
2022/09/13 06:28:08;;;;;;;6.88;3.47;;;;;;;;;;5069031;28;20159;-73
2022/09/13 06:30:34;;;;;;;6.68;3.45;;;;;;;;;;5069234;28;20442;-73
2022/09/13 06:33:00;;;;;;;11.43;4.13;;;;;;;;;;5068838;28;20117;-73
2022/09/13 06:35:26;;;;;;;6.80;4.18;;;;;;;;;;5067188;28;20491;-73
2022/09/13 06:37:56;;;;;;;5.43;3.28;;;;;;;;;;5068867;28;20029;-73
2022/09/13 06:40:22;;;;;;;9.88;3.72;;;;;;;;;;5069077;28;20024;-72
2022/09/13 06:42:48;;;;;;;7.03;4.00;;;;;;;;;;5068921;28;20162;-73
2022/09/13 06:45:14;;;;;;;12.65;4.10;;;;;;;;;;5069599;28;20031;-73
2022/09/13 06:47:40;;;;;;;7.90;4.75;;;;;;;;;;5069056;28;20096;-73
2022/09/13 06:50:06;;;;;;;10.85;5.25;;;;;;;;;;5068694;28;20165;-73
2022/09/13 06:52:32;;;;;;;6.85;4.88;;;;;;;;;;5064341;28;20032;-73
2022/09/13 06:54:59;;;;;;;9.27;5.38;;;;;;;;;;5062095;28;20025;-73
2022/09/13 06:57:25;;;;;;;10.38;5.95;;;;;;;;;;5061729;28;20435;-70
2022/09/13 06:59:51;;;;;;;13.70;6.35;;;;;;;;;;5068248;28;20475;-71
2022/09/13 07:02:17;;;;;;;16.25;10.70;;;;;;;;;;5068350;28;20036;-71
2022/09/13 07:04:43;;;;;;;9.05;4.60;;;;;;;;;;5069133;28;20070;-70
2022/09/13 07:07:09;;;;;;;15.75;11.48;;;;;;;;;;5068292;28;20021;-70
2022/09/13 07:09:35;;;;;;;9.05;5.85;;;;;;;;;;5068522;28;20078;-71
2022/09/13 07:12:01;;;;;;;8.57;4.93;;;;;;;;;;5068504;28;20063;-71
2022/09/13 07:14:28;;;;;;;7.45;4.32;;;;;;;;;;5068660;28;20463;-71
2022/09/13 07:16:54;;;;;;;12.52;7.55;;;;;;;;;;5068714;28;20029;-71
2022/09/13 07:19:28;;;;;;;10.95;7.10;;;;;;;;;;5067955;28;20023;-70
2022/09/13 07:21:54;;;;;;;12.35;8.05;;;;;;;;;;5068127;28;20479;-71
2022/09/13 07:24:21;;;;;;;13.55;9.55;;;;;;;;;;5068202;28;20020;-71
2022/09/13 07:26:47;;;;;;;26.60;20.20;;;;;;;;;;5068933;28;20028;-71
2022/09/13 07:29:15;;;;;;;19.02;12.43;;;;;;;;;;5067923;28;20064;-71
2022/09/13 07:31:42;;;;;;;18.48;11.60;;;;;;;;;;5069303;28;20032;-71
2022/09/13 07:34:11;;;;;;;10.27;6.60;;;;;;;;;;5067877;28;20032;-70
2022/09/13 07:36:37;;;;;;;19.02;11.98;;;;;;;;;;5068932;28;20545;-70
2022/09/13 07:39:04;;;;;;;21.15;15.18;;;;;;;;;;5067897;28;20029;-71
2022/09/13 07:41:31;;;;;;;14.45;9.07;;;;;;;;;;5068645;28;20021;-71
2022/09/13 07:43:57;;;;;;;24.75;18.60;;;;;;;;;;5068072;28;20028;-72
2022/09/13 07:46:27;;;;;;;18.58;14.15;;;;;;;;;;5067910;28;20039;-71
2022/09/13 07:48:54;;;;;;;10.10;7.20;;;;;;;;;;5067582;28;20185;-71
2022/09/13 07:51:22;;;;;;;12.10;8.10;;;;;;;;;;5069334;28;20082;-71
2022/09/13 07:53:49;;;;;;;12.45;8.63;;;;;;;;;;5073863;28;20078;-72
2022/09/13 07:56:15;;;;;;;15.85;12.30;;;;;;;;;;5069120;28;20032;-71
2022/09/13 07:58:42;;;;;;;10.50;5.90;;;;;;;;;;5067321;28;20031;-71
2022/09/13 08:01:11;;;;;;;15.98;11.23;;;;;;;;;;5068405;28;20083;-71
2022/09/13 08:03:37;;;;;;;11.25;8.35;;;;;;;;;;5067768;28;20029;-71
2022/09/13 08:06:04;;;;;;;13.95;8.38;;;;;;;;;;5071256;28;20082;-71
2022/09/13 08:08:30;;;;;;;9.10;6.57;;;;;;;;;;5071799;28;20037;-72
2022/09/13 08:10:57;;;;;;;9.60;5.38;;;;;;;;;;5071329;28;20028;-72
2022/09/13 08:13:23;;;;;;;12.18;6.82;;;;;;;;;;5072062;28;20052;-71
2022/09/13 08:15:49;;;;;;;8.77;6.38;;;;;;;;;;5071374;28;20096;-71
2022/09/13 08:18:16;;;;;;;10.30;5.32;;;;;;;;;;5071521;28;20089;-71
2022/09/13 08:20:42;;;;;;;8.75;5.00;;;;;;;;;;5071512;28;20048;-71
2022/09/13 08:23:09;;;;;;;6.22;2.85;;;;;;;;;;5071390;28;20036;-72
2022/09/13 08:25:37;;;;;;;6.28;3.45;;;;;;;;;;5071280;28;20059;-71
2022/09/13 08:28:13;;;;;;;9.45;5.70;;;;;;;;;;5070955;28;20040;-71
2022/09/13 08:30:41;;;;;;;15.40;8.10;;;;;;;;;;5070839;28;20023;-71
2022/09/13 08:33:07;;;;;;;10.65;7.22;;;;;;;;;;5071372;28;20060;-71
2022/09/13 08:35:34;;;;;;;11.25;7.10;;;;;;;;;;5071272;28;20031;-71
2022/09/13 08:38:00;;;;;;;12.10;7.68;;;;;;;;;;5071215;28;20025;-71
2022/09/13 08:40:47;;;;;;;18.58;11.38;;;;;;;;;;5070922;28;20040;-71
2022/09/13 08:43:33;;;;;;;17.38;11.05;;;;;;;;;;5071258;28;20478;-71
2022/09/13 08:46:02;;;;;;;9.13;6.47;;;;;;;;;;5070572;28;20403;-71
2022/09/13 08:48:33;;;;;;;23.05;15.55;;;;;;;;;;5071156;28;20051;-71
2022/09/13 08:51:03;;;;;;;16.08;11.80;;;;;;;;;;5070549;28;20147;-71
2022/09/13 08:53:30;;;;;;;18.05;12.77;;;;;;;;;;5070935;28;20033;-71
2022/09/13 08:55:56;;;;;;;9.90;6.22;;;;;;;;;;5070602;28;20029;-71
2022/09/13 08:58:29;;;;;;;16.30;11.63;;;;;;;;;;5071115;28;20025;-71
2022/09/13 09:01:06;;;;;;;10.27;6.93;;;;;;;;;;5070546;28;20386;-71
2022/09/13 09:03:32;;;;;;;13.18;10.05;;;;;;;;;;5070753;28;20475;-70
2022/09/13 09:05:58;;;;;;;14.60;12.48;;;;;;;;;;5070410;28;20081;-70
2022/09/13 09:08:35;;;;;;;20.58;15.30;;;;;;;;;;5070778;28;20080;-70
2022/09/13 09:11:04;;;;;;;18.83;15.07;;;;;;;;;;5070450;28;20046;-70
2022/09/13 09:13:54;;;;;;;15.40;8.05;;;;;;;;;;5070839;28;20028;-70
2022/09/13 09:16:20;;;;;;;;;;;;;;;;;;5069994;28;20025;-70
2022/09/13 09:18:47;;;;;;;12.00;9.07;;;;;;;;;;5069376;28;19915;-70
2022/09/13 09:21:16;;;;;;;14.27;8.77;;;;;;;;;;5070431;28;20047;-71
2022/09/13 09:24:01;;;;;;;5.95;3.40;;;;;;;;;;5070228;28;20017;-71
2022/09/13 09:26:29;;;;;;;13.38;10.27;;;;;;;;;;5063379;28;20025;-71
2022/09/13 09:28:57;;;;;;;6.43;4.07;;;;;;;;;;5070135;28;20044;-71
2022/09/13 09:31:44;;;;;;;12.63;8.25;;;;;;;;;;5068536;28;20471;-71
2022/09/13 09:34:36;;;;;;;16.38;12.52;;;;;;;;;;5059780;28;20063;-71
2022/09/13 09:37:15;;;;;;;4.85;2.88;;;;;;;;;;5069449;28;20562;-71
2022/09/13 09:39:43;;;;;;;4.53;2.10;;;;;;;;;;5069154;28;20040;-71
2022/09/13 09:42:16;;;;;;;6.97;4.15;;;;;;;;;;5061635;28;20012;-71
2022/09/13 09:44:43;;;;;;;8.13;4.55;;;;;;;;;;5069361;28;20020;-71
2022/09/13 09:47:14;;;;;;;8.85;5.80;;;;;;;;;;5069903;28;20471;-70
2022/09/13 09:52:39;;;;;;;10.30;6.30;;;;;;;;;;5056261;28;20141;-71
2022/09/13 09:55:26;;;;;;;10.73;5.88;;;;;;;;;;5070287;28;20036;-71
2022/09/13 09:57:52;;;;;;;9.85;7.20;;;;;;;;;;5069411;28;20017;-71
2022/09/13 10:00:19;;;;;;;7.57;4.95;;;;;;;;;;5069659;28;20025;-71
2022/09/13 10:02:46;;;;;;;8.32;5.50;;;;;;;;;;5069452;28;20015;-71
2022/09/13 10:05:12;;;;;;;6.38;3.78;;;;;;;;;;5069993;28;20153;-71
2022/09/13 10:07:40;;;;;;;9.50;4.63;;;;;;;;;;5064822;28;20106;-71
2022/09/13 10:10:19;;;;;;;6.45;4.03;;;;;;;;;;5069182;28;20058;-71
2022/09/13 10:12:48;;;;;;;7.07;3.80;;;;;;;;;;5057462;28;20479;-71
2022/09/13 10:15:16;;;;;;;8.37;4.97;;;;;;;;;;5071241;28;20029;-71
2022/09/13 10:17:42;;;;;;;7.63;5.38;;;;;;;;;;5070854;28;20050;-71
2022/09/13 10:20:14;;;;;;;6.70;3.97;;;;;;;;;;5069442;28;20020;-71
2022/09/13 10:22:44;;;;;;;5.80;3.85;;;;;;;;;;5069716;28;20445;-71
2022/09/13 10:25:13;;;;;;;3.25;1.77;;;;;;;;;;5069625;28;20111;-71
2022/09/13 10:27:41;;;;;;;7.97;3.50;;;;;;;;;;5068255;28;20024;-71
2022/09/13 10:30:08;;;;;;;7.93;5.55;;;;;;;;;;5069143;28;20033;-71
2022/09/13 10:32:34;;;;;;;3.60;2.22;;;;;;;;;;5069480;28;20132;-71
2022/09/13 10:35:17;;;;;;;3.72;1.75;;;;;;;;;;5067518;28;20031;-71
2022/09/13 10:37:44;;;;;;;5.20;2.15;;;;;;;;;;5031606;28;20017;-70
2022/09/13 10:40:18;;;;;;;6.32;3.65;;;;;;;;;;5064466;28;20028;-70
2022/09/13 10:42:57;;;;;;;4.85;2.38;;;;;;;;;;5069404;28;20032;-70
2022/09/13 10:45:25;;;;;;;6.20;1.83;;;;;;;;;;5058104;28;20505;-70
2022/09/13 10:47:53;;;;;;;4.93;2.28;;;;;;;;;;5068492;28;20398;-70
2022/09/13 10:50:20;;;;;;;3.58;2.10;;;;;;;;;;5067749;28;20873;-70
2022/09/13 10:52:50;;;;;;;3.40;1.50;;;;;;;;;;5069092;28;20032;-70
2022/09/13 10:55:19;;;;;;;5.78;2.85;;;;;;;;;;5068462;28;20033;-71
2022/09/13 10:57:48;;;;;;;4.13;1.88;;;;;;;;;;5067956;28;20029;-72
2022/09/13 11:00:19;;;;;;;1.83;1.00;;;;;;;;;;5068884;28;20025;-70
2022/09/13 11:03:03;;;;;;;4.35;1.75;;;;;;;;;;5068937;28;20537;-70
2022/09/13 11:05:36;;;;;;;2.90;1.42;;;;;;;;;;5068715;28;20024;-71
2022/09/13 11:08:08;;;;;;;3.75;1.63;;;;;;;;;;5063924;28;20025;-71
2022/09/13 11:10:54;;;;;;;6.68;2.53;;;;;;;;;;5058805;28;20036;-71
2022/09/13 11:13:38;;;;;;;5.00;2.92;;;;;;;;;;5069074;28;20059;-71
2022/09/13 11:16:21;;;;;;;4.28;1.70;;;;;;;;;;5068573;28;20028;-71
2022/09/13 11:19:06;;;;;;;4.57;1.88;;;;;;;;;;5062094;28;20036;-71
2022/09/13 11:21:34;;;;;;;3.45;1.23;;;;;;;;;;5063954;28;20154;-71
2022/09/13 11:24:14;;;;;;;5.43;2.15;;;;;;;;;;5068411;28;20051;-71
2022/09/13 11:26:43;;;;;;;5.40;1.60;;;;;;;;;;5069012;28;20028;-71
2022/09/13 11:29:23;;;;;;;3.53;1.73;;;;;;;;;;5068549;28;20071;-71
2022/09/13 11:32:03;;;;;;;3.42;1.27;;;;;;;;;;5068482;28;20021;-71
2022/09/13 11:34:41;;;;;;;2.70;1.10;;;;;;;;;;5052266;28;20430;-71
2022/09/13 11:37:10;;;;;;;2.55;1.00;;;;;;;;;;5068177;28;20029;-71
2022/09/13 11:39:39;;;;;;;2.05;1.15;;;;;;;;;;5069846;28;20036;-71
2022/09/13 11:42:11;;;;;;;3.00;1.27;;;;;;;;;;5072058;28;20068;-71
2022/09/13 11:44:56;;;;;;;1.90;0.80;;;;;;;;;;5071991;28;20021;-70
2022/09/13 11:47:40;;;;;;;4.10;1.00;;;;;;;;;;5071626;28;20021;-70
2022/09/13 11:50:20;;;;;;;2.55;1.00;;;;;;;;;;5067729;28;20033;-70
2022/09/13 11:53:00;;;;;;;4.45;1.90;;;;;;;;;;5071766;28;20089;-70
2022/09/13 11:55:34;;;;;;;6.85;3.83;;;;;;;;;;5072451;28;20390;-70
2022/09/13 11:58:03;;;;;;;4.85;2.20;;;;;;;;;;5068099;28;20194;-71
2022/09/13 12:00:29;;;;;;;5.20;2.20;;;;;;;;;;5071925;28;20052;-70
2022/09/13 12:03:01;;;;;;;5.93;3.53;;;;;;;;;;5071581;28;20035;-70
2022/09/13 12:05:29;;;;;;;5.53;2.47;;;;;;;;;;5069981;28;20020;-71
2022/09/13 12:07:58;;;;;;;5.03;1.88;;;;;;;;;;5071478;28;20417;-71
2022/09/13 12:10:27;;;;;;;5.15;2.55;;;;;;;;;;5071708;28;20426;-71
2022/09/13 12:12:53;;;;;;;6.95;3.28;;;;;;;;;;5071790;28;20021;-71
2022/09/13 12:15:22;;;;;;;7.03;2.60;;;;;;;;;;5071424;28;20033;-71
2022/09/13 12:17:55;;;;;;;3.45;1.30;;;;;;;;;;5070412;28;20537;-71
2022/09/13 12:20:28;;;;;;;4.78;2.15;;;;;;;;;;5062281;28;20021;-71
2022/09/13 12:22:54;;;;;;;3.95;1.67;;;;;;;;;;5064023;28;20019;-71
2022/09/13 12:25:32;;;;;;;4.82;2.40;;;;;;;;;;5070388;28;20028;-71
2022/09/13 12:28:24;;;;;;;3.75;1.25;;;;;;;;;;5064248;28;20489;-72
2022/09/13 12:30:59;;;;;;;6.20;1.30;;;;;;;;;;5068568;28;20041;-71
2022/09/13 12:33:25;;;;;;;3.78;1.23;;;;;;;;;;5071821;28;20020;-71
2022/09/13 12:36:14;;;;;;;5.78;1.40;;;;;;;;;;5075710;28;20020;-72
2022/09/13 12:38:50;;;;;;;2.72;1.10;;;;;;;;;;5077249;28;20103;-72
2022/09/13 12:41:35;;;;;;;3.47;1.27;;;;;;;;;;5064704;28;20039;-72
2022/09/13 12:44:07;;;;;;;4.18;1.05;;;;;;;;;;5071522;28;20016;-72
2022/09/13 12:46:43;;;;;;;6.72;1.13;;;;;;;;;;5070575;28;20027;-74
2022/09/13 12:49:09;;;;;;;4.47;1.10;;;;;;;;;;5066691;28;20032;-75
2022/09/13 12:51:44;;;;;;;2.95;1.13;;;;;;;;;;5058322;28;20025;-75
2022/09/13 12:54:24;;;;;;;5.00;1.05;;;;;;;;;;5063073;28;20047;-75
2022/09/13 12:56:55;;;;;;;1.58;0.80;;;;;;;;;;5067656;28;20031;-75
2022/09/13 12:59:24;;;;;;;3.28;1.13;;;;;;;;;;5069884;28;20086;-76
2022/09/13 13:01:51;;;;;;;4.13;1.27;;;;;;;;;;5070813;28;20074;-76
2022/09/13 13:04:35;;;;;;;5.82;1.38;;;;;;;;;;5070695;28;20108;-75
2022/09/13 13:07:03;;;;;;;3.63;1.00;;;;;;;;;;5070358;28;20498;-76
2022/09/13 13:09:29;;;;;;;4.10;1.08;;;;;;;;;;5070347;28;20067;-75
2022/09/13 13:11:57;;;;;;;3.70;1.00;;;;;;;;;;5070703;28;20064;-78
2022/09/13 13:14:29;;;;;;;3.03;0.70;;;;;;;;;;5069918;28;20031;-76
2022/09/13 13:17:15;;;;;;;4.20;0.93;;;;;;;;;;5070313;28;20068;-76
2022/09/13 13:19:43;;;;;;;3.08;1.20;;;;;;;;;;5070067;28;20055;-76
2022/09/13 13:22:28;;;;;;;2.70;1.10;;;;;;;;;;5070293;28;20119;-76
2022/09/13 13:24:54;;;;;;;2.42;1.00;;;;;;;;;;5069122;28;20017;-76
2022/09/13 13:27:40;;;;;;;2.53;1.00;;;;;;;;;;5069783;28;20024;-76
2022/09/13 13:30:34;;;;;;;4.20;0.90;;;;;;;;;;5069945;28;20060;-76
2022/09/13 13:33:14;;;;;;;2.40;0.75;;;;;;;;;;5070346;28;20028;-76
2022/09/13 13:35:41;;;;;;;1.95;0.82;;;;;;;;;;5070050;28;20021;-76
2022/09/13 13:38:17;;;;;;;3.40;0.70;;;;;;;;;;5070356;28;20107;-76
2022/09/13 13:40:45;;;;;;;2.55;0.90;;;;;;;;;;5068711;28;20029;-76
2022/09/13 13:43:37;;;;;;;2.90;0.85;;;;;;;;;;5070728;28;20028;-76
2022/09/13 13:46:12;;;;;;;2.75;0.70;;;;;;;;;;5067733;28;20036;-76
2022/09/13 13:48:40;;;;;;;4.28;1.33;;;;;;;;;;5070019;28;20047;-76
2022/09/13 13:51:15;;;;;;;3.28;1.10;;;;;;;;;;5070774;28;20043;-77
2022/09/13 13:54:01;;;;;;;2.97;1.50;;;;;;;;;;5071326;28;20031;-77
2022/09/13 13:56:33;;;;;;;2.85;0.70;;;;;;;;;;5071447;28;20055;-77
2022/09/13 13:59:02;;;;;;;4.20;1.20;;;;;;;;;;5069476;28;20027;-77
2022/09/13 14:01:30;;;;;;;3.37;1.33;;;;;;;;;;5069825;28;20013;-76
2022/09/13 14:03:56;;;;;;;2.97;1.00;;;;;;;;;;5068664;28;20028;-76
2022/09/13 14:06:22;;;;;;;4.30;2.22;;;;;;;;;;5060046;28;20021;-76
2022/09/13 14:09:03;;;;;;;2.97;1.00;;;;;;;;;;5068460;28;20077;-76
2022/09/13 14:11:38;;;;;;;2.80;0.80;;;;;;;;;;5068866;28;20032;-76
2022/09/13 14:14:07;;;;;;;5.43;1.15;;;;;;;;;;5069304;28;20059;-76
2022/09/13 14:16:36;;;;;;;3.50;1.02;;;;;;;;;;5069494;28;20433;-76
2022/09/13 14:19:17;;;;;;;3.23;1.57;;;;;;;;;;5069540;28;20063;-76
2022/09/13 14:21:43;;;;;;;3.55;1.65;;;;;;;;;;5069378;28;20106;-76
2022/09/13 14:24:23;;;;;;;5.40;1.30;;;;;;;;;;5067304;28;20031;-77
2022/09/13 14:26:53;;;;;;;5.70;2.08;;;;;;;;;;5056383;28;20028;-76
2022/09/13 14:29:21;;;;;;;2.58;1.00;;;;;;;;;;5068924;28;20105;-80
2022/09/13 14:31:51;;;;;;;7.15;3.88;;;;;;;;;;5068900;28;20130;-78
2022/09/13 14:34:17;;;;;;;;;;;;;;;;;;5069866;28;20033;-78
2022/09/13 14:36:50;;;;;;;7.72;4.25;;;;;;;;;;5067437;28;19939;-79
2022/09/13 14:39:16;;;;;;;4.95;1.75;;;;;;;;;;5068969;28;20036;-78
2022/09/13 14:41:42;;;;;;;7.30;4.60;;;;;;;;;;5068473;28;20028;-78
2022/09/13 14:44:16;;;;;;;8.18;2.72;;;;;;;;;;5067847;28;20544;-78
2022/09/13 14:46:43;;;;;;;4.95;1.50;;;;;;;;;;5053971;28;20036;-79
2022/09/13 14:49:14;;;;;;;11.80;5.20;;;;;;;;;;5062592;28;20496;-78
2022/09/13 14:51:45;;;;;;;8.98;3.00;;;;;;;;;;5048710;28;20029;-78
2022/09/13 14:54:17;;;;;;;6.70;3.20;;;;;;;;;;5068291;28;20024;-77